Raton, NM

6:16 AM MDT on August 28, 2014 (GMT -0600)
Raton Municipal-Crews | Change Station
CLOSE
Current Station
Airport
Location: Raton,
Elevation: 6352 ft
Nearby Weather Stations

Elev 6352 ft 36.74 °N, 104.50 °W | Updated 23 minutes ago

Clear
Clear
48 °F
Feels Like 48 °F
N
7
Wind Variable Wind from East

Today
High -- | Low -- °F
--% Chance of Precip.
Yesterday
High -- | Low -- °F
Precip. -- in
6:26 AM 7:32 PM
Waxing Crescent, 8% visible
Pressure 29.96 in
Visibility 10.0 miles
Clouds Clear
Dew Point 39 °F
Humidity 71%
Rainfall 0.00 in
Snow Depth Not available.
UV 0 out of 12
Pollen 9.80 out of 12
Air Quality Not available.
Flu Activity Not available.
METAR KRTN 281153Z AUTO 08006KT 10SM CLR 09/04 A3019 RMK AO2 SLP145 T00890039 10150 20083 57003

More Conditions Fewer Conditions

Pressure 29.96 in
Visibility 10.0 miles
Clouds Clear
Dew Point 39 °F
Humidity 71%
Rainfall 0.00 in
Snow Depth Not available.
UV 0 out of 12
Pollen 9.80 out of 12
Air Quality Not available.
Flu Activity Not available.
METAR KRTN 281153Z AUTO 08006KT 10SM CLR 09/04 A3019 RMK AO2 SLP145 T00890039 10150 20083 57003

More Conditions Fewer Conditions

10-Day Weather Forecast

Almanac

Astronomy

Aug. 28, 2014 Rise Set
Actual Time 6:26 AM MDT 7:32 PM MDT
Civil Twilight 5:59 AM MDT 7:59 PM MDT
Nautical Twilight 5:27 AM MDT 8:30 PM MDT
Astronomical Twilight 4:54 AM MDT 9:03 PM MDT
Moon 9:15 AM MDT 9:03 PM MDT
Length of Visible Light 13h 59m
Length of Day
13h 06m
Tomorrow will be 2m 13s shorter.
Waxing Crescent, 8% of the Moon is Illuminated
Today
Waxing Crescent
Sep 2
First Quarter
Sep 8
Full
Sep 15
Last Quarter
Sep 24
New

Today's Extremes

State Highs State Lows

Community

WunderPhotos

Upload Photos

1,747,932 photos uploaded!

Nearby

Snow Depth

Station Depth Elevation
North Costilla 2 in 10600 ft
Tolby 1 in 10180 ft
Gallegos Peak 1 in 9800 ft
Hopewell 1 in 10000 ft
Wesner Springs 2 in 11120 ft

Earthquake Activity

City Distance Mag. Time & Date
No recent earthquake activity has been reported nearby.
Minimum magnitude displayed is 2.5.

Coastal Water Temperatures

Place Temperature
No Stations Reporting

Nearby Weather Stations